Terminal Aerodrome Forecast
Issued by NWS

Home | Current Version | Previous Version | Graphics & Text | Print | Product List | Glossary On
Versions: 1 2 3 4 5 6 7 8 9 10 11 12 13 14 15 16 17 18 19
000
FTUS43 KBIS 151402 AAB
TAFJMS
TAF AMD
KJMS 151402Z 1514/1612 17008KT P6SM VCSH SCT005 BKN027 OVC080
     FM151600 19006KT 2SM -SN BR OVC015
     FM151800 19007KT 4SM -SN BR VCSH OVC035
     FM152000 19007KT P6SM OVC035
     FM160500 26004KT P6SM OVC035
     FM161000 30006KT P6SM BKN030=

USA.gov is the U.S. government's official web portal to all federal, state and local government web resources and services.